Time;durP1;ratioP1;P1;durP2;ratioP2;P2;SDS_P1;SDS_P2;PMS_P1;PMS_P2;Temp;Humidity;BMP_temperature;BMP_pressure;BME280_temperature;BME280_humidity;BME280_pressure;Samples;Min_cycle;Max_cycle;Signal;HPM_P1;HPM_P2
2023/06/15 00:02:11;;;;;;;5.75;3.10;;;;;;;;;;5035031;28;20093;-73
2023/06/15 00:04:37;;;;;;;5.28;3.17;;;;;;;;;;5033395;28;20455;-73
2023/06/15 00:07:03;;;;;;;6.95;3.05;;;;;;;;;;5033903;28;20033;-73
2023/06/15 00:09:29;;;;;;;8.45;3.00;;;;;;;;;;5031224;28;20443;-72
2023/06/15 00:11:55;;;;;;;4.30;2.80;;;;;;;;;;5031491;28;20022;-70
2023/06/15 00:14:21;;;;;;;11.45;3.20;;;;;;;;;;5032056;28;20026;-72
2023/06/15 00:16:47;;;;;;;5.95;2.95;;;;;;;;;;5032174;28;20048;-70
2023/06/15 00:19:13;;;;;;;5.57;3.38;;;;;;;;;;5032168;28;20021;-72
2023/06/15 00:21:40;;;;;;;7.53;3.53;;;;;;;;;;5031738;28;20064;-72
2023/06/15 00:24:06;;;;;;;10.73;3.42;;;;;;;;;;5031967;28;20418;-72
2023/06/15 00:26:32;;;;;;;9.95;3.42;;;;;;;;;;5031872;28;20029;-72
2023/06/15 00:29:16;;;;;;;9.38;3.28;;;;;;;;;;5031567;28;20090;-72
2023/06/15 00:31:42;;;;;;;10.52;2.90;;;;;;;;;;5031260;28;20072;-72
2023/06/15 00:34:08;;;;;;;12.45;3.30;;;;;;;;;;5031364;28;20033;-72
2023/06/15 00:36:34;;;;;;;10.07;3.40;;;;;;;;;;5032014;28;20057;-72
2023/06/15 00:39:00;;;;;;;6.07;2.92;;;;;;;;;;5032592;28;20060;-72
2023/06/15 00:41:26;;;;;;;5.25;2.95;;;;;;;;;;5031980;28;20029;-73
2023/06/15 00:43:53;;;;;;;5.18;2.88;;;;;;;;;;5030828;28;20025;-73
2023/06/15 00:46:19;;;;;;;8.90;3.22;;;;;;;;;;5031518;28;20498;-72
2023/06/15 00:48:45;;;;;;;8.02;3.67;;;;;;;;;;5031213;28;20018;-71
2023/06/15 00:51:11;;;;;;;8.05;3.17;;;;;;;;;;5031366;28;20032;-73
2023/06/15 00:53:37;;;;;;;5.60;3.00;;;;;;;;;;5030694;28;20119;-72
2023/06/15 00:56:04;;;;;;;7.40;3.17;;;;;;;;;;5030948;28;20060;-72
2023/06/15 00:58:31;;;;;;;9.10;3.50;;;;;;;;;;5031085;28;20041;-73
2023/06/15 01:00:57;;;;;;;8.30;2.85;;;;;;;;;;5030520;28;20083;-73
2023/06/15 01:03:23;;;;;;;5.95;3.05;;;;;;;;;;5030295;28;20034;-72
2023/06/15 01:05:53;;;;;;;6.05;3.10;;;;;;;;;;5030541;28;20025;-72
2023/06/15 01:08:20;;;;;;;4.18;3.08;;;;;;;;;;5032255;28;20017;-72
2023/06/15 01:10:46;;;;;;;9.63;3.10;;;;;;;;;;5031756;28;20071;-73
2023/06/15 01:13:13;;;;;;;6.93;2.90;;;;;;;;;;5031664;28;20029;-72
2023/06/15 01:15:41;;;;;;;4.63;2.88;;;;;;;;;;5031780;28;20030;-73
2023/06/15 01:18:08;;;;;;;3.72;2.80;;;;;;;;;;5031933;28;20024;-72
2023/06/15 01:20:39;;;;;;;5.80;3.70;;;;;;;;;;5032463;28;20049;-74
2023/06/15 01:23:10;;;;;;;8.52;2.85;;;;;;;;;;5032263;28;20121;-73
2023/06/15 01:25:53;;;;;;;7.43;3.17;;;;;;;;;;5032871;28;20048;-73
2023/06/15 01:28:23;;;;;;;15.45;3.10;;;;;;;;;;5033555;28;20071;-73
2023/06/15 01:30:51;;;;;;;9.18;3.95;;;;;;;;;;5032472;28;20029;-72
2023/06/15 01:33:17;;;;;;;7.72;2.80;;;;;;;;;;5031455;28;20060;-73
2023/06/15 01:35:43;;;;;;;9.18;3.50;;;;;;;;;;5044566;28;20043;-72
2023/06/15 01:38:10;;;;;;;8.27;3.70;;;;;;;;;;5051492;28;20475;-72
2023/06/15 01:40:40;;;;;;;6.93;3.30;;;;;;;;;;5051243;28;20525;-72
2023/06/15 01:43:07;;;;;;;10.73;3.28;;;;;;;;;;5050412;28;20032;-72
2023/06/15 01:45:34;;;;;;;9.40;3.22;;;;;;;;;;5051382;28;20100;-72
2023/06/15 01:48:01;;;;;;;6.25;3.45;;;;;;;;;;5051490;28;20120;-73
2023/06/15 01:50:27;;;;;;;5.20;3.15;;;;;;;;;;5051209;28;20041;-71
2023/06/15 01:52:53;;;;;;;6.18;2.95;;;;;;;;;;5029208;28;20358;-72
2023/06/15 01:55:19;;;;;;;22.83;4.57;;;;;;;;;;5026739;28;20116;-73
2023/06/15 01:57:46;;;;;;;8.07;3.50;;;;;;;;;;5030317;28;20554;-72
2023/06/15 02:00:12;;;;;;;8.38;3.50;;;;;;;;;;5029773;28;20327;-72
2023/06/15 02:02:38;;;;;;;7.82;3.58;;;;;;;;;;5029470;28;20072;-71
2023/06/15 02:05:08;;;;;;;3.95;3.13;;;;;;;;;;5030257;28;20106;-71
2023/06/15 02:07:34;;;;;;;5.97;3.25;;;;;;;;;;5029779;28;20030;-71
2023/06/15 02:10:00;;;;;;;10.27;3.47;;;;;;;;;;5035622;28;20040;-71
2023/06/15 02:12:26;;;;;;;7.32;3.65;;;;;;;;;;5033577;28;20029;-72
2023/06/15 02:14:52;;;;;;;7.93;4.40;;;;;;;;;;5033775;28;20494;-72
2023/06/15 02:17:18;;;;;;;10.23;4.18;;;;;;;;;;5034108;28;20091;-72
2023/06/15 02:19:47;;;;;;;12.98;3.67;;;;;;;;;;5033655;28;20033;-73
2023/06/15 02:22:13;;;;;;;7.97;3.47;;;;;;;;;;5033357;28;20090;-73
2023/06/15 02:24:39;;;;;;;9.23;3.70;;;;;;;;;;5033821;28;20026;-72
2023/06/15 02:27:06;;;;;;;12.48;4.65;;;;;;;;;;5033546;28;20434;-72
2023/06/15 02:29:32;;;;;;;7.43;4.00;;;;;;;;;;5033497;28;20379;-71
2023/06/15 02:31:58;;;;;;;9.32;3.80;;;;;;;;;;5032785;28;20459;-72
2023/06/15 02:34:24;;;;;;;12.07;4.00;;;;;;;;;;5033388;28;20112;-72
2023/06/15 02:36:53;;;;;;;13.90;3.10;;;;;;;;;;5033476;28;20031;-70
2023/06/15 02:39:19;;;;;;;8.15;3.83;;;;;;;;;;5033571;28;20032;-72
2023/06/15 02:41:45;;;;;;;6.63;3.50;;;;;;;;;;5032630;28;20026;-71
2023/06/15 02:44:11;;;;;;;9.95;4.00;;;;;;;;;;5033299;28;20422;-71
2023/06/15 02:46:37;;;;;;;8.93;3.70;;;;;;;;;;5031224;28;20113;-73
2023/06/15 02:49:04;;;;;;;5.68;3.42;;;;;;;;;;5035242;28;20021;-72
2023/06/15 02:51:31;;;;;;;18.80;10.65;;;;;;;;;;5033762;28;20041;-71
2023/06/15 02:53:57;;;;;;;9.23;3.80;;;;;;;;;;5033776;28;20037;-73
2023/06/15 02:56:22;;;;;;;8.50;4.05;;;;;;;;;;5032898;28;20021;-75
2023/06/15 02:58:53;;;;;;;13.57;3.83;;;;;;;;;;5033126;28;20152;-72
2023/06/15 03:01:20;;;;;;;7.28;3.85;;;;;;;;;;5033430;28;20116;-72
2023/06/15 03:03:46;;;;;;;7.28;3.63;;;;;;;;;;5032768;28;20183;-72
2023/06/15 03:06:14;;;;;;;11.80;4.07;;;;;;;;;;5033552;28;20528;-71
2023/06/15 03:08:41;;;;;;;8.13;3.88;;;;;;;;;;5033480;28;20025;-73
2023/06/15 03:11:07;;;;;;;7.03;3.78;;;;;;;;;;5033126;28;20044;-73
2023/06/15 03:13:33;;;;;;;8.55;3.13;;;;;;;;;;5031108;28;20436;-73
2023/06/15 03:16:00;;;;;;;7.93;4.13;;;;;;;;;;5033297;28;20159;-72
2023/06/15 03:18:28;;;;;;;8.05;3.70;;;;;;;;;;5034744;28;20475;-71
2023/06/15 03:20:54;;;;;;;8.95;3.28;;;;;;;;;;5036413;28;20038;-72
2023/06/15 03:23:20;;;;;;;9.30;3.28;;;;;;;;;;5033709;28;20073;-72
2023/06/15 03:25:46;;;;;;;6.05;3.17;;;;;;;;;;5038668;28;20022;-72
2023/06/15 03:28:12;;;;;;;8.50;3.50;;;;;;;;;;5035381;28;20022;-72
2023/06/15 03:30:41;;;;;;;7.18;3.85;;;;;;;;;;5033274;28;20023;-72
2023/06/15 03:33:08;;;;;;;10.32;4.03;;;;;;;;;;5033735;28;20026;-73
2023/06/15 03:35:34;;;;;;;9.20;4.20;;;;;;;;;;5036755;28;20032;-72
2023/06/15 03:38:00;;;;;;;11.48;4.35;;;;;;;;;;5036259;28;20376;-72
2023/06/15 03:40:26;;;;;;;12.18;4.28;;;;;;;;;;5035624;28;20032;-73
2023/06/15 03:42:52;;;;;;;21.73;4.15;;;;;;;;;;5033858;28;20029;-72
2023/06/15 03:45:18;;;;;;;8.48;3.75;;;;;;;;;;5033900;28;20022;-71
2023/06/15 03:47:47;;;;;;;12.45;4.47;;;;;;;;;;5034767;28;20022;-75
2023/06/15 03:50:13;;;;;;;10.68;4.93;;;;;;;;;;5034803;28;20018;-73
2023/06/15 03:52:39;;;;;;;9.35;4.35;;;;;;;;;;5036188;28;20491;-72
2023/06/15 03:55:05;;;;;;;11.27;4.72;;;;;;;;;;5038058;28;20027;-73
2023/06/15 03:57:31;;;;;;;10.40;4.85;;;;;;;;;;5035995;28;20036;-73
2023/06/15 03:59:57;;;;;;;9.65;4.30;;;;;;;;;;5034347;28;20053;-72
2023/06/15 04:02:24;;;;;;;10.38;3.88;;;;;;;;;;5033965;28;20087;-71
2023/06/15 04:04:52;;;;;;;8.50;3.95;;;;;;;;;;5033638;28;20032;-71
2023/06/15 04:07:19;;;;;;;7.68;4.25;;;;;;;;;;5033086;28;20046;-71
2023/06/15 04:09:45;;;;;;;12.75;4.30;;;;;;;;;;5033202;28;20064;-74
2023/06/15 04:12:11;;;;;;;12.68;4.82;;;;;;;;;;5033125;28;20061;-72
2023/06/15 04:14:37;;;;;;;17.70;4.40;;;;;;;;;;5033348;28;20079;-71
2023/06/15 04:17:03;;;;;;;8.98;4.03;;;;;;;;;;5033257;28;20418;-73
2023/06/15 04:19:29;;;;;;;8.07;3.92;;;;;;;;;;5032969;28;20105;-73
2023/06/15 04:21:55;;;;;;;15.73;4.45;;;;;;;;;;5032865;28;20527;-73
2023/06/15 04:24:21;;;;;;;7.57;4.18;;;;;;;;;;5032927;28;20124;-72
2023/06/15 04:26:47;;;;;;;9.75;4.30;;;;;;;;;;5032841;28;20135;-73
2023/06/15 04:29:13;;;;;;;6.75;4.38;;;;;;;;;;5031205;28;20151;-71
2023/06/15 04:31:40;;;;;;;13.63;5.63;;;;;;;;;;5032732;28;20064;-74
2023/06/15 04:34:06;;;;;;;9.85;4.60;;;;;;;;;;5033272;28;20403;-71
2023/06/15 04:36:34;;;;;;;10.60;4.32;;;;;;;;;;5035137;28;20032;-73
2023/06/15 04:39:00;;;;;;;9.27;4.40;;;;;;;;;;5034082;28;20026;-73
2023/06/15 04:41:29;;;;;;;12.68;4.70;;;;;;;;;;5033622;28;20061;-73
2023/06/15 04:43:55;;;;;;;9.02;4.55;;;;;;;;;;5033781;28;20494;-73
2023/06/15 04:46:21;;;;;;;5.93;4.03;;;;;;;;;;5033904;28;20029;-71
2023/06/15 04:48:47;;;;;;;11.48;3.78;;;;;;;;;;5032611;28;20026;-73
2023/06/15 04:51:14;;;;;;;13.65;4.43;;;;;;;;;;5032741;28;20440;-73
2023/06/15 04:53:44;;;;;;;11.77;4.45;;;;;;;;;;5032287;28;20151;-73
2023/06/15 04:56:10;;;;;;;8.07;4.15;;;;;;;;;;5032514;28;20376;-73
2023/06/15 04:58:36;;;;;;;11.10;4.22;;;;;;;;;;5035366;28;20041;-73
2023/06/15 05:01:02;;;;;;;7.63;3.92;;;;;;;;;;5034402;28;20032;-74
2023/06/15 05:03:28;;;;;;;6.68;4.10;;;;;;;;;;5034840;28;20026;-72
2023/06/15 05:05:54;;;;;;;6.45;4.20;;;;;;;;;;5035252;28;20079;-75
2023/06/15 05:08:20;;;;;;;6.55;3.65;;;;;;;;;;5033439;28;20117;-71
2023/06/15 05:10:46;;;;;;;11.27;4.40;;;;;;;;;;5033147;28;20124;-72
2023/06/15 05:13:12;;;;;;;11.15;4.50;;;;;;;;;;5032271;28;20079;-73
2023/06/15 05:15:38;;;;;;;9.82;4.07;;;;;;;;;;5032588;28;20475;-71
2023/06/15 05:18:04;;;;;;;14.85;4.40;;;;;;;;;;5034370;28;20056;-72
2023/06/15 05:20:30;;;;;;;23.27;5.13;;;;;;;;;;5033670;28;20037;-72
2023/06/15 05:22:56;;;;;;;9.40;4.47;;;;;;;;;;5032289;28;20034;-72
2023/06/15 05:25:22;;;;;;;8.40;4.20;;;;;;;;;;5032455;28;20028;-73
2023/06/15 05:27:48;;;;;;;13.35;4.60;;;;;;;;;;5034720;28;20029;-76
2023/06/15 05:30:15;;;;;;;14.02;4.18;;;;;;;;;;5032117;28;20423;-72
2023/06/15 05:32:41;;;;;;;8.00;4.28;;;;;;;;;;5032151;28;20075;-72
2023/06/15 05:35:07;;;;;;;19.50;4.32;;;;;;;;;;5032670;28;20037;-75
2023/06/15 05:37:34;;;;;;;10.80;4.10;;;;;;;;;;5032258;28;20450;-71
2023/06/15 05:40:00;;;;;;;8.27;4.30;;;;;;;;;;5031372;28;20055;-73
2023/06/15 05:42:27;;;;;;;8.25;4.07;;;;;;;;;;5031166;28;20435;-74
2023/06/15 05:44:53;;;;;;;12.73;4.00;;;;;;;;;;5031360;28;20476;-73
2023/06/15 05:47:19;;;;;;;7.80;4.07;;;;;;;;;;5033126;28;20247;-76
2023/06/15 05:49:45;;;;;;;17.27;7.32;;;;;;;;;;5033635;28;20085;-76
2023/06/15 05:52:11;;;;;;;16.77;6.15;;;;;;;;;;5031471;28;20467;-74
2023/06/15 05:54:37;;;;;;;14.10;4.57;;;;;;;;;;5031492;28;20083;-73
2023/06/15 05:57:03;;;;;;;9.48;3.90;;;;;;;;;;5032177;28;20033;-74
2023/06/15 05:59:29;;;;;;;13.52;3.95;;;;;;;;;;5031473;28;20035;-74
2023/06/15 06:01:55;;;;;;;11.45;4.00;;;;;;;;;;5045941;28;20043;-73
2023/06/15 06:04:21;;;;;;;12.75;6.03;;;;;;;;;;5036499;28;20471;-73
2023/06/15 06:06:49;;;;;;;10.18;3.80;;;;;;;;;;5032203;28;20478;-73
2023/06/15 06:09:15;;;;;;;11.05;3.92;;;;;;;;;;5031824;28;20044;-76
2023/06/15 06:11:42;;;;;;;18.55;4.70;;;;;;;;;;5030960;28;20025;-75
2023/06/15 06:14:08;;;;;;;15.05;4.10;;;;;;;;;;5030099;28;20104;-72
2023/06/15 06:16:34;;;;;;;6.85;4.00;;;;;;;;;;5031289;28;20493;-70
2023/06/15 06:19:00;;;;;;;15.23;3.90;;;;;;;;;;5032065;28;20087;-74
2023/06/15 06:21:26;;;;;;;8.57;3.53;;;;;;;;;;5032097;28;20572;-73
2023/06/15 06:23:52;;;;;;;9.05;4.28;;;;;;;;;;5031254;28;20108;-70
2023/06/15 06:26:18;;;;;;;11.52;3.65;;;;;;;;;;5031125;28;20025;-70
2023/06/15 06:28:44;;;;;;;12.30;3.65;;;;;;;;;;5030728;28;20022;-73
2023/06/15 06:31:10;;;;;;;7.55;3.80;;;;;;;;;;5030666;28;20029;-70
2023/06/15 06:33:37;;;;;;;13.98;4.20;;;;;;;;;;5030259;28;20393;-71
2023/06/15 06:36:04;;;;;;;10.15;4.00;;;;;;;;;;5031721;28;20112;-72
2023/06/15 06:38:30;;;;;;;16.35;4.18;;;;;;;;;;5030769;28;20041;-72
2023/06/15 06:40:56;;;;;;;8.27;4.07;;;;;;;;;;5031347;28;20074;-74
2023/06/15 06:43:22;;;;;;;12.32;4.50;;;;;;;;;;5030684;28;20048;-73
2023/06/15 06:45:48;;;;;;;14.93;4.10;;;;;;;;;;5030888;28;20021;-71
2023/06/15 06:48:14;;;;;;;11.25;4.78;;;;;;;;;;5033361;28;20048;-72
2023/06/15 06:50:40;;;;;;;16.45;4.85;;;;;;;;;;5030450;28;20017;-71
2023/06/15 06:53:06;;;;;;;10.75;5.25;;;;;;;;;;5029975;28;20037;-72
2023/06/15 06:55:32;;;;;;;8.88;3.88;;;;;;;;;;5033273;28;20490;-70
2023/06/15 06:58:00;;;;;;;16.10;5.63;;;;;;;;;;5033375;28;20025;-72
2023/06/15 07:00:27;;;;;;;20.80;6.35;;;;;;;;;;5033559;28;20513;-74
2023/06/15 07:02:53;;;;;;;34.58;11.27;;;;;;;;;;5032673;28;20072;-73
2023/06/15 07:05:20;;;;;;;14.27;5.38;;;;;;;;;;5035534;28;20018;-75
2023/06/15 07:07:47;;;;;;;18.02;5.15;;;;;;;;;;5035027;28;20022;-77
2023/06/15 07:10:13;;;;;;;7.82;3.78;;;;;;;;;;5035128;28;20030;-73
2023/06/15 07:12:39;;;;;;;10.35;4.50;;;;;;;;;;5032894;28;20036;-75
2023/06/15 07:15:05;;;;;;;11.13;3.90;;;;;;;;;;5033111;28;20472;-74
2023/06/15 07:17:31;;;;;;;8.73;3.92;;;;;;;;;;5034041;28;20438;-73
2023/06/15 07:19:57;;;;;;;20.40;8.02;;;;;;;;;;5036990;28;20036;-75
2023/06/15 07:22:23;;;;;;;42.33;15.25;;;;;;;;;;5039933;28;20022;-74
2023/06/15 07:24:50;;;;;;;58.30;22.55;;;;;;;;;;5042942;28;20651;-74
2023/06/15 07:27:16;;;;;;;52.38;24.13;;;;;;;;;;5043271;28;20041;-73
2023/06/15 07:29:42;;;;;;;13.48;6.90;;;;;;;;;;5038780;28;20546;-74
2023/06/15 07:32:08;;;;;;;11.88;4.10;;;;;;;;;;5040165;28;20113;-76
2023/06/15 07:34:34;;;;;;;21.60;10.02;;;;;;;;;;5044347;28;20028;-73
2023/06/15 07:37:00;;;;;;;10.80;4.30;;;;;;;;;;5038883;28;20109;-73
2023/06/15 07:39:27;;;;;;;28.17;13.50;;;;;;;;;;5039218;28;20105;-74
2023/06/15 07:41:52;;;;;;;16.73;7.85;;;;;;;;;;5036401;28;20458;-74
2023/06/15 07:44:19;;;;;;;20.33;9.40;;;;;;;;;;5038604;28;20030;-73
2023/06/15 07:46:44;;;;;;;17.38;4.72;;;;;;;;;;5041320;28;20024;-75
2023/06/15 07:49:10;;;;;;;15.93;4.43;;;;;;;;;;5041867;28;20128;-73
2023/06/15 07:51:37;;;;;;;13.20;4.40;;;;;;;;;;5037345;28;20160;-74
2023/06/15 07:54:03;;;;;;;7.43;3.45;;;;;;;;;;5035267;28;20045;-72
2023/06/15 07:56:29;;;;;;;10.93;4.00;;;;;;;;;;5034998;28;20111;-74
2023/06/15 07:58:55;;;;;;;14.68;4.53;;;;;;;;;;5037436;28;20022;-73
2023/06/15 08:01:22;;;;;;;13.75;5.05;;;;;;;;;;5038547;28;20031;-76
2023/06/15 08:03:48;;;;;;;14.25;4.80;;;;;;;;;;5040066;28;20032;-73
2023/06/15 08:06:14;;;;;;;10.82;4.00;;;;;;;;;;5037108;28;20044;-74
2023/06/15 08:08:40;;;;;;;6.40;3.13;;;;;;;;;;5038789;28;20044;-73
2023/06/15 08:11:06;;;;;;;7.93;3.67;;;;;;;;;;5034489;28;20025;-73
2023/06/15 08:13:32;;;;;;;8.55;3.58;;;;;;;;;;5033793;28;20025;-72
2023/06/15 08:15:59;;;;;;;7.18;3.42;;;;;;;;;;5032956;28;20040;-71
2023/06/15 08:18:28;;;;;;;9.63;3.60;;;;;;;;;;5033507;28;20530;-72
2023/06/15 08:20:56;;;;;;;7.32;3.22;;;;;;;;;;5034266;28;20029;-75
2023/06/15 08:23:22;;;;;;;8.40;3.17;;;;;;;;;;5033719;28;20029;-74
2023/06/15 08:25:47;;;;;;;9.65;3.35;;;;;;;;;;5034231;28;20021;-73
2023/06/15 08:28:14;;;;;;;12.88;4.15;;;;;;;;;;5037877;28;20087;-73
2023/06/15 08:30:40;;;;;;;7.05;3.72;;;;;;;;;;5038317;28;20026;-72
2023/06/15 08:33:06;;;;;;;9.13;3.08;;;;;;;;;;5037849;28;20060;-72
2023/06/15 08:35:32;;;;;;;15.07;3.45;;;;;;;;;;5039841;28;20032;-71
2023/06/15 08:37:58;;;;;;;6.20;3.13;;;;;;;;;;5034359;28;20037;-75
2023/06/15 08:40:24;;;;;;;9.15;3.28;;;;;;;;;;5034805;28;20372;-72
2023/06/15 08:42:52;;;;;;;10.15;3.75;;;;;;;;;;5017153;28;20041;-73
2023/06/15 08:45:19;;;;;;;14.10;3.30;;;;;;;;;;5034712;28;20033;-74
2023/06/15 08:47:45;;;;;;;9.60;2.72;;;;;;;;;;5035534;28;20531;-74
2023/06/15 08:50:12;;;;;;;5.88;3.22;;;;;;;;;;5035061;28;20022;-73
2023/06/15 08:52:40;;;;;;;13.93;3.72;;;;;;;;;;5034109;28;20371;-75
2023/06/15 08:55:08;;;;;;;7.18;3.22;;;;;;;;;;5033882;28;20116;-73
2023/06/15 08:57:35;;;;;;;11.63;3.28;;;;;;;;;;5035395;28;20030;-74
2023/06/15 09:00:05;;;;;;;11.85;3.47;;;;;;;;;;5033547;28;20151;-74
2023/06/15 09:02:31;;;;;;;7.75;2.83;;;;;;;;;;5031889;28;20076;-73
2023/06/15 09:04:57;;;;;;;6.60;3.00;;;;;;;;;;5032424;28;20475;-73
2023/06/15 09:07:24;;;;;;;8.02;2.78;;;;;;;;;;5032287;28;20037;-74
2023/06/15 09:10:16;;;;;;;8.07;3.20;;;;;;;;;;5031920;28;20041;-74
2023/06/15 09:12:46;;;;;;;12.45;3.35;;;;;;;;;;5030367;28;20042;-73
2023/06/15 09:15:17;;;;;;;14.60;3.40;;;;;;;;;;5032073;28;20021;-73
2023/06/15 09:17:43;;;;;;;11.95;3.60;;;;;;;;;;5031487;28;20037;-73
2023/06/15 09:20:10;;;;;;;7.57;2.95;;;;;;;;;;5031564;28;20029;-76
2023/06/15 09:22:41;;;;;;;10.95;3.40;;;;;;;;;;5032197;28;20032;-77
2023/06/15 09:25:17;;;;;;;6.25;3.40;;;;;;;;;;5032557;28;20026;-75
2023/06/15 09:27:56;;;;;;;8.02;3.47;;;;;;;;;;5033433;28;20072;-75
2023/06/15 09:30:23;;;;;;;12.50;3.85;;;;;;;;;;5033652;28;20049;-76
2023/06/15 09:32:49;;;;;;;7.15;3.55;;;;;;;;;;5033271;28;20032;-81
2023/06/15 09:35:15;;;;;;;8.73;3.10;;;;;;;;;;5033401;28;20022;-77
2023/06/15 09:37:41;;;;;;;27.08;4.68;;;;;;;;;;5034879;28;20104;-77
2023/06/15 09:40:08;;;;;;;13.00;3.28;;;;;;;;;;5036009;28;20033;-77
2023/06/15 09:42:35;;;;;;;14.80;4.30;;;;;;;;;;5034828;28;20116;-74
2023/06/15 09:45:03;;;;;;;19.70;3.78;;;;;;;;;;5030644;28;20104;-75
2023/06/15 09:47:29;;;;;;;30.77;4.70;;;;;;;;;;5031970;28;20391;-75
2023/06/15 09:49:55;;;;;;;22.95;4.88;;;;;;;;;;5031981;28;20022;-75
2023/06/15 09:52:22;;;;;;;40.28;7.60;;;;;;;;;;5034848;28;20052;-74
2023/06/15 09:54:48;;;;;;;16.60;5.47;;;;;;;;;;5034917;28;20025;-74
2023/06/15 09:57:18;;;;;;;22.35;5.32;;;;;;;;;;5034265;28;20383;-75
2023/06/15 09:59:44;;;;;;;29.80;4.03;;;;;;;;;;5032076;28;20479;-75
2023/06/15 10:02:11;;;;;;;11.85;4.75;;;;;;;;;;5029935;28;20051;-74
2023/06/15 10:04:40;;;;;;;11.95;4.43;;;;;;;;;;5031905;28;20096;-74
2023/06/15 10:07:07;;;;;;;11.25;3.58;;;;;;;;;;5034168;28;20029;-75
2023/06/15 10:09:49;;;;;;;9.13;3.95;;;;;;;;;;5032512;28;20033;-74
2023/06/15 10:12:20;;;;;;;16.08;4.25;;;;;;;;;;5032756;28;20021;-74
2023/06/15 10:14:55;;;;;;;18.88;3.83;;;;;;;;;;5033590;28;20048;-74
2023/06/15 10:17:30;;;;;;;9.18;4.18;;;;;;;;;;5032769;28;20034;-74
2023/06/15 10:19:57;;;;;;;8.57;2.95;;;;;;;;;;5031478;28;20056;-74
2023/06/15 10:22:24;;;;;;;9.45;3.20;;;;;;;;;;5032570;28;20033;-73
2023/06/15 10:24:51;;;;;;;9.90;3.67;;;;;;;;;;5031788;28;20024;-75
2023/06/15 10:27:18;;;;;;;6.68;3.50;;;;;;;;;;5031319;28;20026;-74
2023/06/15 10:30:02;;;;;;;7.72;3.50;;;;;;;;;;5033358;28;20029;-74
2023/06/15 10:32:34;;;;;;;6.63;3.10;;;;;;;;;;5036128;28;20033;-73
2023/06/15 10:35:19;;;;;;;8.70;4.05;;;;;;;;;;5036428;28;20025;-73
2023/06/15 10:37:46;;;;;;;;;;;;;;;;;;5035938;28;20025;-74
2023/06/15 10:40:14;;;;;;;7.28;3.28;;;;;;;;;;5035470;28;19958;-74
2023/06/15 10:42:43;;;;;;;5.40;2.95;;;;;;;;;;5034921;28;20029;-72
2023/06/15 10:45:39;;;;;;;13.23;3.95;;;;;;;;;;5035195;28;20025;-73
2023/06/15 10:48:05;;;;;;;8.25;3.10;;;;;;;;;;5030278;28;20525;-78
2023/06/15 10:50:39;;;;;;;15.13;4.35;;;;;;;;;;5031678;28;20029;-74
2023/06/15 10:53:05;;;;;;;;;;;;;;;;;;5034647;28;20075;-74
2023/06/15 10:55:32;;;;;;;10.32;4.72;;;;;;;;;;5032410;28;19909;-73
2023/06/15 10:58:25;;;;;;;11.48;5.80;;;;;;;;;;5034515;28;20557;-73
2023/06/15 11:01:13;;;;;;;18.52;3.50;;;;;;;;;;5034266;28;20171;-73
2023/06/15 11:03:43;;;;;;;31.58;4.55;;;;;;;;;;5033328;28;20026;-73
2023/06/15 11:06:16;;;;;;;11.60;3.45;;;;;;;;;;5034558;28;20029;-73
2023/06/15 11:08:46;;;;;;;10.83;3.90;;;;;;;;;;5034129;28;20071;-75
2023/06/15 11:11:12;;;;;;;13.43;4.43;;;;;;;;;;5034549;28;20021;-81
2023/06/15 11:14:00;;;;;;;13.98;3.72;;;;;;;;;;5034522;28;20032;-77
2023/06/15 11:16:31;;;;;;;13.82;5.75;;;;;;;;;;5035141;28;20025;-72
2023/06/15 11:18:57;;;;;;;12.20;5.80;;;;;;;;;;5034745;28;20036;-73
2023/06/15 11:21:30;;;;;;;17.85;4.43;;;;;;;;;;5034247;28;20025;-74
2023/06/15 11:23:57;;;;;;;12.75;5.07;;;;;;;;;;5033920;28;20033;-73
2023/06/15 11:26:28;;;;;;;7.20;3.65;;;;;;;;;;5034187;28;20436;-74
2023/06/15 11:28:57;;;;;;;15.82;4.60;;;;;;;;;;5034490;28;20517;-74
2023/06/15 11:31:23;;;;;;;14.88;3.95;;;;;;;;;;5034403;28;20112;-74
2023/06/15 11:33:49;;;;;;;16.65;4.32;;;;;;;;;;5034196;28;20026;-73
2023/06/15 11:36:15;;;;;;;15.23;3.78;;;;;;;;;;5034709;28;20030;-74
2023/06/15 11:38:41;;;;;;;14.57;3.50;;;;;;;;;;5042712;28;20022;-75
2023/06/15 11:41:08;;;;;;;12.30;3.42;;;;;;;;;;5043733;28;20022;-75
2023/06/15 11:43:40;;;;;;;12.63;4.35;;;;;;;;;;5044174;28;20033;-74
2023/06/15 11:46:09;;;;;;;8.75;3.85;;;;;;;;;;5042735;28;20104;-74
2023/06/15 11:48:35;;;;;;;12.48;3.40;;;;;;;;;;5039043;28;20024;-75
2023/06/15 11:51:01;;;;;;;12.35;4.28;;;;;;;;;;5034390;28;20022;-73
2023/06/15 11:53:27;;;;;;;11.25;4.70;;;;;;;;;;5033756;28;20025;-74
2023/06/15 11:55:53;;;;;;;16.90;6.88;;;;;;;;;;5034828;28;20026;-73
2023/06/15 11:58:20;;;;;;;13.38;4.03;;;;;;;;;;5035273;28;20028;-73
2023/06/15 12:00:46;;;;;;;13.13;3.80;;;;;;;;;;5033958;28;20447;-73
2023/06/15 12:03:12;;;;;;;17.52;4.60;;;;;;;;;;5035492;28;20402;-73
2023/06/15 12:05:39;;;;;;;10.05;3.58;;;;;;;;;;5035371;28;20017;-73
2023/06/15 12:08:06;;;;;;;13.32;4.18;;;;;;;;;;5037039;28;20077;-73
2023/06/15 12:10:37;;;;;;;13.77;3.72;;;;;;;;;;5043715;28;20025;-73
2023/06/15 12:13:04;;;;;;;7.70;3.92;;;;;;;;;;5042824;28;20039;-74
2023/06/15 12:15:30;;;;;;;11.27;3.85;;;;;;;;;;5041918;28;20048;-75
2023/06/15 12:17:58;;;;;;;15.57;3.78;;;;;;;;;;5036274;28;20025;-75
2023/06/15 12:20:28;;;;;;;11.07;3.97;;;;;;;;;;5038657;28;20032;-73
2023/06/15 12:22:54;;;;;;;9.68;3.90;;;;;;;;;;5038161;28;20026;-73
2023/06/15 12:25:38;;;;;;;10.55;3.67;;;;;;;;;;5038957;28;20024;-74
2023/06/15 12:28:12;;;;;;;10.90;3.60;;;;;;;;;;5033024;28;20026;-73
2023/06/15 12:30:39;;;;;;;9.32;3.35;;;;;;;;;;5032611;28;20026;-72
2023/06/15 12:33:05;;;;;;;13.20;4.18;;;;;;;;;;5032525;28;20029;-73
2023/06/15 12:35:37;;;;;;;14.38;3.72;;;;;;;;;;5032631;28;20545;-72
2023/06/15 12:38:03;;;;;;;9.77;3.67;;;;;;;;;;5032677;28;20029;-72
2023/06/15 12:40:29;;;;;;;7.88;3.33;;;;;;;;;;5033048;28;20025;-75
2023/06/15 12:42:56;;;;;;;13.40;4.47;;;;;;;;;;5032470;28;20039;-74
2023/06/15 12:45:22;;;;;;;8.50;3.80;;;;;;;;;;5032684;28;20459;-74
2023/06/15 12:47:48;;;;;;;9.80;4.00;;;;;;;;;;5033859;28;20028;-75
2023/06/15 12:50:14;;;;;;;21.05;6.18;;;;;;;;;;5038586;28;20036;-79
2023/06/15 12:52:40;;;;;;;16.52;4.07;;;;;;;;;;5039396;28;20030;-75
2023/06/15 12:55:07;;;;;;;13.13;3.80;;;;;;;;;;5047108;28;20084;-75
2023/06/15 12:57:33;;;;;;;9.80;3.97;;;;;;;;;;5039355;28;20455;-74
2023/06/15 12:59:59;;;;;;;7.82;3.58;;;;;;;;;;5041722;28;20049;-75
2023/06/15 13:02:25;;;;;;;6.20;3.80;;;;;;;;;;5031564;28;20030;-74
2023/06/15 13:04:51;;;;;;;8.50;3.70;;;;;;;;;;5037245;28;20396;-74
2023/06/15 13:07:17;;;;;;;11.07;3.60;;;;;;;;;;5036751;28;20081;-75
2023/06/15 13:09:43;;;;;;;13.40;4.05;;;;;;;;;;5039007;28;20040;-75
2023/06/15 13:12:09;;;;;;;11.63;4.10;;;;;;;;;;5030918;28;20460;-73
2023/06/15 13:14:36;;;;;;;8.43;4.40;;;;;;;;;;5033868;28;20083;-73
2023/06/15 13:17:02;;;;;;;12.25;3.90;;;;;;;;;;5031137;28;20056;-75
2023/06/15 13:19:28;;;;;;;5.43;3.30;;;;;;;;;;5039794;28;20377;-77
2023/06/15 13:21:54;;;;;;;9.32;4.00;;;;;;;;;;5031685;28;20100;-74
2023/06/15 13:24:20;;;;;;;13.73;4.18;;;;;;;;;;5038044;28;20052;-75
2023/06/15 13:26:46;;;;;;;4.95;3.35;;;;;;;;;;5035459;28;20108;-74
2023/06/15 13:29:12;;;;;;;9.10;3.90;;;;;;;;;;5032791;28;20460;-74
2023/06/15 13:31:38;;;;;;;6.95;3.88;;;;;;;;;;5031738;28;20067;-73
2023/06/15 13:34:05;;;;;;;9.27;3.95;;;;;;;;;;5034142;28;20108;-74
2023/06/15 13:36:31;;;;;;;8.43;3.50;;;;;;;;;;5039164;28;20430;-74
2023/06/15 13:38:57;;;;;;;5.10;3.65;;;;;;;;;;5034443;28;20120;-74
2023/06/15 13:41:23;;;;;;;8.27;3.95;;;;;;;;;;5032610;28;20064;-74
2023/06/15 13:43:49;;;;;;;13.75;3.90;;;;;;;;;;5034247;28;20057;-76
2023/06/15 13:46:16;;;;;;;11.90;3.30;;;;;;;;;;5031537;28;20096;-74
2023/06/15 13:48:42;;;;;;;6.28;3.50;;;;;;;;;;5031994;28;20022;-74
2023/06/15 13:51:08;;;;;;;13.73;3.50;;;;;;;;;;5037879;28;20121;-74
2023/06/15 13:53:35;;;;;;;8.43;4.22;;;;;;;;;;5034207;28;20029;-75
2023/06/15 13:56:01;;;;;;;11.30;3.72;;;;;;;;;;5040465;28;20109;-75
2023/06/15 13:58:27;;;;;;;9.80;4.30;;;;;;;;;;5037549;28;20057;-75
2023/06/15 14:00:53;;;;;;;8.70;4.22;;;;;;;;;;5035206;28;20087;-75
2023/06/15 14:03:19;;;;;;;6.75;4.45;;;;;;;;;;5032093;28;20482;-74
2023/06/15 14:05:45;;;;;;;8.15;4.13;;;;;;;;;;5035454;28;20033;-74
2023/06/15 14:08:11;;;;;;;7.43;4.47;;;;;;;;;;5037111;28;20033;-74
2023/06/15 14:10:37;;;;;;;10.38;4.07;;;;;;;;;;5037563;28;20025;-74
2023/06/15 14:13:04;;;;;;;12.43;4.15;;;;;;;;;;5035768;28;20025;-74
2023/06/15 14:15:30;;;;;;;22.98;4.30;;;;;;;;;;5037870;28;20017;-75
2023/06/15 14:17:56;;;;;;;13.77;4.22;;;;;;;;;;5040159;28;20040;-78
2023/06/15 14:20:22;;;;;;;28.70;5.70;;;;;;;;;;5036463;28;20056;-77
2023/06/15 14:22:48;;;;;;;10.20;4.32;;;;;;;;;;5035827;28;20034;-76
2023/06/15 14:25:14;;;;;;;8.98;4.32;;;;;;;;;;5036085;28;20052;-77
2023/06/15 14:27:45;;;;;;;11.40;4.32;;;;;;;;;;5037031;28;20052;-78
2023/06/15 14:30:11;;;;;;;7.88;4.38;;;;;;;;;;5038522;28;20022;-74
2023/06/15 14:32:37;;;;;;;6.57;4.15;;;;;;;;;;5038901;28;20463;-75
2023/06/15 14:35:03;;;;;;;8.27;4.22;;;;;;;;;;5040116;28;20037;-74
2023/06/15 14:37:29;;;;;;;6.97;4.40;;;;;;;;;;5037725;28;20090;-73